sensor_id;sensor_type;location;lat;lon;timestamp;pressure;altitude;pressure_sealevel;temperature;humidity
56070;BME280;41944;52.078;-0.058;2023-04-24T00:00:46;100239.83;;;10.03;80.88
56070;BME280;41944;52.078;-0.058;2023-04-24T00:03:13;100245.54;;;9.86;80.35
56070;BME280;41944;52.078;-0.058;2023-04-24T00:05:40;100249.43;;;9.64;81.48
56070;BME280;41944;52.078;-0.058;2023-04-24T00:08:08;100251.27;;;9.41;82.90
56070;BME280;41944;52.078;-0.058;2023-04-24T00:10:36;100254.88;;;9.37;84.02
56070;BME280;41944;52.078;-0.058;2023-04-24T00:13:03;100256.98;;;9.33;83.76
56070;BME280;41944;52.078;-0.058;2023-04-24T00:15:30;100262.24;;;9.33;84.34
56070;BME280;41944;52.078;-0.058;2023-04-24T00:17:58;100263.26;;;9.22;84.79
56070;BME280;41944;52.078;-0.058;2023-04-24T00:20:24;100266.45;;;9.20;84.93
56070;BME280;41944;52.078;-0.058;2023-04-24T00:22:52;100268.87;;;9.24;85.22
56070;BME280;41944;52.078;-0.058;2023-04-24T00:25:19;100270.17;;;9.30;84.37
56070;BME280;41944;52.078;-0.058;2023-04-24T00:27:46;100275.14;;;9.60;83.36
56070;BME280;41944;52.078;-0.058;2023-04-24T00:30:13;100277.69;;;9.70;82.76
56070;BME280;41944;52.078;-0.058;2023-04-24T00:32:40;100279.30;;;9.84;81.92
56070;BME280;41944;52.078;-0.058;2023-04-24T00:35:07;100281.21;;;9.89;81.76
56070;BME280;41944;52.078;-0.058;2023-04-24T00:37:34;100282.94;;;9.94;81.69
56070;BME280;41944;52.078;-0.058;2023-04-24T00:40:02;100284.58;;;9.93;82.53
56070;BME280;41944;52.078;-0.058;2023-04-24T00:42:29;100288.14;;;10.03;82.25
56070;BME280;41944;52.078;-0.058;2023-04-24T00:44:57;100289.80;;;10.05;82.75
56070;BME280;41944;52.078;-0.058;2023-04-24T00:47:25;100295.80;;;10.39;81.13
56070;BME280;41944;52.078;-0.058;2023-04-24T00:49:52;100298.88;;;10.29;81.19
56070;BME280;41944;52.078;-0.058;2023-04-24T00:52:20;100301.30;;;10.45;80.80
56070;BME280;41944;52.078;-0.058;2023-04-24T00:54:47;100303.29;;;10.13;82.37
56070;BME280;41944;52.078;-0.058;2023-04-24T00:57:14;100304.98;;;10.23;82.34
56070;BME280;41944;52.078;-0.058;2023-04-24T00:59:42;100305.54;;;10.24;82.81
56070;BME280;41944;52.078;-0.058;2023-04-24T01:02:10;100303.00;;;10.29;82.09
56070;BME280;41944;52.078;-0.058;2023-04-24T01:04:38;100299.97;;;10.19;82.72
56070;BME280;41944;52.078;-0.058;2023-04-24T01:07:05;100299.90;;;10.40;81.43
56070;BME280;41944;52.078;-0.058;2023-04-24T01:09:32;100301.05;;;10.34;81.76
56070;BME280;41944;52.078;-0.058;2023-04-24T01:11:59;100301.09;;;10.21;82.82
56070;BME280;41944;52.078;-0.058;2023-04-24T01:14:27;100306.35;;;10.38;81.23
56070;BME280;41944;52.078;-0.058;2023-04-24T01:16:53;100311.71;;;10.32;81.76
56070;BME280;41944;52.078;-0.058;2023-04-24T01:19:20;100311.81;;;10.38;81.11
56070;BME280;41944;52.078;-0.058;2023-04-24T01:21:47;100316.15;;;10.31;81.19
56070;BME280;41944;52.078;-0.058;2023-04-24T01:24:18;100318.83;;;10.23;82.02
56070;BME280;41944;52.078;-0.058;2023-04-24T01:26:46;100319.27;;;10.19;81.93
56070;BME280;41944;52.078;-0.058;2023-04-24T01:29:13;100321.99;;;10.18;81.97
56070;BME280;41944;52.078;-0.058;2023-04-24T01:31:41;100324.29;;;10.07;82.37
56070;BME280;41944;52.078;-0.058;2023-04-24T01:34:08;100329.58;;;9.95;82.96
56070;BME280;41944;52.078;-0.058;2023-04-24T01:36:35;100327.76;;;9.95;83.27
56070;BME280;41944;52.078;-0.058;2023-04-24T01:39:02;100333.87;;;9.91;82.69
56070;BME280;41944;52.078;-0.058;2023-04-24T01:41:30;100336.16;;;9.93;82.46
56070;BME280;41944;52.078;-0.058;2023-04-24T01:43:57;100338.41;;;9.90;82.61
56070;BME280;41944;52.078;-0.058;2023-04-24T01:46:25;100341.73;;;10.03;80.61
56070;BME280;41944;52.078;-0.058;2023-04-24T01:48:53;100343.71;;;10.02;81.13
56070;BME280;41944;52.078;-0.058;2023-04-24T01:51:20;100345.36;;;10.25;79.14
56070;BME280;41944;52.078;-0.058;2023-04-24T01:53:47;100345.14;;;10.10;80.17
56070;BME280;41944;52.078;-0.058;2023-04-24T01:56:15;100350.54;;;10.11;79.28
56070;BME280;41944;52.078;-0.058;2023-04-24T01:58:43;100354.73;;;9.98;80.05
56070;BME280;41944;52.078;-0.058;2023-04-24T02:01:15;100350.12;;;10.10;79.42
56070;BME280;41944;52.078;-0.058;2023-04-24T02:03:42;100352.67;;;10.23;77.45
56070;BME280;41944;52.078;-0.058;2023-04-24T02:06:09;100355.60;;;10.09;78.70
56070;BME280;41944;52.078;-0.058;2023-04-24T02:08:36;100360.84;;;9.96;79.72
56070;BME280;41944;52.078;-0.058;2023-04-24T02:11:03;100362.55;;;9.88;80.80
56070;BME280;41944;52.078;-0.058;2023-04-24T02:13:30;100363.06;;;9.90;81.55
56070;BME280;41944;52.078;-0.058;2023-04-24T02:15:58;100370.37;;;10.09;79.58
56070;BME280;41944;52.078;-0.058;2023-04-24T02:18:25;100372.97;;;10.18;78.16
56070;BME280;41944;52.078;-0.058;2023-04-24T02:20:52;100375.62;;;10.05;78.60
56070;BME280;41944;52.078;-0.058;2023-04-24T02:23:20;100380.75;;;10.12;78.27
56070;BME280;41944;52.078;-0.058;2023-04-24T02:25:47;100377.48;;;10.08;78.82
56070;BME280;41944;52.078;-0.058;2023-04-24T02:28:13;100373.86;;;10.00;79.05
56070;BME280;41944;52.078;-0.058;2023-04-24T02:30:40;100374.61;;;9.79;80.44
56070;BME280;41944;52.078;-0.058;2023-04-24T02:33:08;100374.69;;;9.55;81.30
56070;BME280;41944;52.078;-0.058;2023-04-24T02:35:35;100375.65;;;9.69;80.26
56070;BME280;41944;52.078;-0.058;2023-04-24T02:38:02;100379.56;;;9.68;80.10
56070;BME280;41944;52.078;-0.058;2023-04-24T02:40:29;100375.60;;;9.56;80.41
56070;BME280;41944;52.078;-0.058;2023-04-24T02:42:56;100377.02;;;9.51;80.29
56070;BME280;41944;52.078;-0.058;2023-04-24T02:45:23;100383.62;;;9.28;81.45
56070;BME280;41944;52.078;-0.058;2023-04-24T02:47:49;100379.55;;;9.26;82.07
56070;BME280;41944;52.078;-0.058;2023-04-24T02:50:17;100382.44;;;9.19;81.92
56070;BME280;41944;52.078;-0.058;2023-04-24T02:52:44;100384.37;;;9.14;82.40
56070;BME280;41944;52.078;-0.058;2023-04-24T02:55:11;100387.91;;;9.13;83.10
56070;BME280;41944;52.078;-0.058;2023-04-24T02:57:38;100391.64;;;8.99;83.58
56070;BME280;41944;52.078;-0.058;2023-04-24T03:00:06;100393.16;;;8.94;83.67
56070;BME280;41944;52.078;-0.058;2023-04-24T03:02:33;100395.24;;;8.99;83.77
56070;BME280;41944;52.078;-0.058;2023-04-24T03:05:00;100396.75;;;8.93;83.67
56070;BME280;41944;52.078;-0.058;2023-04-24T03:07:27;100397.98;;;8.89;83.80
56070;BME280;41944;52.078;-0.058;2023-04-24T03:09:54;100399.69;;;8.88;84.12
56070;BME280;41944;52.078;-0.058;2023-04-24T03:12:21;100404.61;;;8.92;84.05
56070;BME280;41944;52.078;-0.058;2023-04-24T03:14:48;100403.19;;;8.77;84.39
56070;BME280;41944;52.078;-0.058;2023-04-24T03:17:15;100403.63;;;8.80;84.42
56070;BME280;41944;52.078;-0.058;2023-04-24T03:19:42;100401.02;;;8.71;85.36
56070;BME280;41944;52.078;-0.058;2023-04-24T03:22:08;100403.25;;;8.73;84.49
56070;BME280;41944;52.078;-0.058;2023-04-24T03:24:36;100404.06;;;8.60;85.70
56070;BME280;41944;52.078;-0.058;2023-04-24T03:27:03;100400.52;;;8.49;86.02
56070;BME280;41944;52.078;-0.058;2023-04-24T03:29:30;100403.20;;;8.47;86.12
56070;BME280;41944;52.078;-0.058;2023-04-24T03:31:57;100400.33;;;8.46;85.14
56070;BME280;41944;52.078;-0.058;2023-04-24T03:34:24;100403.93;;;8.53;85.14
56070;BME280;41944;52.078;-0.058;2023-04-24T03:36:51;100405.67;;;8.43;85.40
56070;BME280;41944;52.078;-0.058;2023-04-24T03:39:17;100410.58;;;8.49;85.96
56070;BME280;41944;52.078;-0.058;2023-04-24T03:41:44;100413.62;;;8.64;84.90
56070;BME280;41944;52.078;-0.058;2023-04-24T03:44:11;100417.76;;;8.63;84.25
56070;BME280;41944;52.078;-0.058;2023-04-24T03:46:38;100414.34;;;8.47;84.32
56070;BME280;41944;52.078;-0.058;2023-04-24T03:49:05;100420.12;;;8.49;85.29
56070;BME280;41944;52.078;-0.058;2023-04-24T03:51:31;100427.15;;;8.62;84.89
56070;BME280;41944;52.078;-0.058;2023-04-24T03:53:58;100423.10;;;8.42;84.48
56070;BME280;41944;52.078;-0.058;2023-04-24T03:56:25;100429.76;;;8.45;83.94
56070;BME280;41944;52.078;-0.058;2023-04-24T03:58:52;100437.58;;;8.38;83.55
56070;BME280;41944;52.078;-0.058;2023-04-24T04:01:19;100444.68;;;8.31;83.88
56070;BME280;41944;52.078;-0.058;2023-04-24T04:03:46;100451.94;;;8.17;84.41
56070;BME280;41944;52.078;-0.058;2023-04-24T04:06:13;100457.61;;;8.51;83.39
56070;BME280;41944;52.078;-0.058;2023-04-24T04:08:40;100457.40;;;8.61;82.37
56070;BME280;41944;52.078;-0.058;2023-04-24T04:11:07;100461.80;;;8.53;81.82
56070;BME280;41944;52.078;-0.058;2023-04-24T04:13:34;100461.74;;;8.46;80.83
56070;BME280;41944;52.078;-0.058;2023-04-24T04:16:01;100463.66;;;8.52;79.62
56070;BME280;41944;52.078;-0.058;2023-04-24T04:18:27;100462.80;;;8.61;78.61
56070;BME280;41944;52.078;-0.058;2023-04-24T04:20:54;100467.71;;;8.59;77.94
56070;BME280;41944;52.078;-0.058;2023-04-24T04:23:21;100472.60;;;8.43;79.60
56070;BME280;41944;52.078;-0.058;2023-04-24T04:25:48;100477.62;;;8.42;80.11
56070;BME280;41944;52.078;-0.058;2023-04-24T04:28:15;100482.45;;;8.29;79.43
56070;BME280;41944;52.078;-0.058;2023-04-24T04:30:42;100484.34;;;8.33;79.64
56070;BME280;41944;52.078;-0.058;2023-04-24T04:33:09;100494.95;;;8.05;79.62
56070;BME280;41944;52.078;-0.058;2023-04-24T04:35:37;100498.40;;;8.07;79.68
56070;BME280;41944;52.078;-0.058;2023-04-24T04:38:04;100503.85;;;8.04;79.70
56070;BME280;41944;52.078;-0.058;2023-04-24T04:40:31;100512.16;;;8.00;79.76
56070;BME280;41944;52.078;-0.058;2023-04-24T04:42:58;100517.30;;;7.98;80.50
56070;BME280;41944;52.078;-0.058;2023-04-24T04:45:25;100521.02;;;7.78;80.61
56070;BME280;41944;52.078;-0.058;2023-04-24T04:47:52;100522.22;;;7.50;82.13
56070;BME280;41944;52.078;-0.058;2023-04-24T04:50:19;100529.02;;;7.46;82.91
56070;BME280;41944;52.078;-0.058;2023-04-24T04:52:45;100536.11;;;7.52;82.47
56070;BME280;41944;52.078;-0.058;2023-04-24T04:55:12;100544.05;;;7.35;83.42
56070;BME280;41944;52.078;-0.058;2023-04-24T04:57:39;100550.61;;;7.24;84.32
56070;BME280;41944;52.078;-0.058;2023-04-24T05:00:07;100553.56;;;7.35;84.49
56070;BME280;41944;52.078;-0.058;2023-04-24T05:02:35;100558.19;;;7.60;83.40
56070;BME280;41944;52.078;-0.058;2023-04-24T05:05:02;100564.75;;;7.67;83.53
56070;BME280;41944;52.078;-0.058;2023-04-24T05:07:29;100567.08;;;7.73;83.02
56070;BME280;41944;52.078;-0.058;2023-04-24T05:09:55;100567.13;;;7.89;82.42
56070;BME280;41944;52.078;-0.058;2023-04-24T05:12:22;100567.84;;;7.87;82.34
56070;BME280;41944;52.078;-0.058;2023-04-24T05:14:49;100570.55;;;7.88;82.59
56070;BME280;41944;52.078;-0.058;2023-04-24T05:17:17;100570.05;;;8.09;81.97
56070;BME280;41944;52.078;-0.058;2023-04-24T05:19:43;100573.87;;;8.07;80.90
56070;BME280;41944;52.078;-0.058;2023-04-24T05:22:10;100576.35;;;8.06;81.35
56070;BME280;41944;52.078;-0.058;2023-04-24T05:24:38;100577.76;;;8.14;81.35
56070;BME280;41944;52.078;-0.058;2023-04-24T05:27:05;100582.79;;;8.24;79.74
56070;BME280;41944;52.078;-0.058;2023-04-24T05:29:32;100587.76;;;8.46;79.00
56070;BME280;41944;52.078;-0.058;2023-04-24T05:32:00;100592.85;;;8.37;79.72
56070;BME280;41944;52.078;-0.058;2023-04-24T05:34:27;100593.21;;;8.36;79.16
56070;BME280;41944;52.078;-0.058;2023-04-24T05:36:55;100599.55;;;8.44;79.19
56070;BME280;41944;52.078;-0.058;2023-04-24T05:39:21;100608.67;;;8.43;79.53
56070;BME280;41944;52.078;-0.058;2023-04-24T05:41:48;100611.78;;;8.56;78.57
56070;BME280;41944;52.078;-0.058;2023-04-24T05:44:15;100616.82;;;8.89;77.37
56070;BME280;41944;52.078;-0.058;2023-04-24T05:46:42;100616.82;;;9.06;76.65
56070;BME280;41944;52.078;-0.058;2023-04-24T05:49:10;100615.95;;;8.94;76.14
56070;BME280;41944;52.078;-0.058;2023-04-24T05:51:37;100615.95;;;9.11;75.41
56070;BME280;41944;52.078;-0.058;2023-04-24T05:54:04;100621.93;;;8.98;76.30
56070;BME280;41944;52.078;-0.058;2023-04-24T05:56:31;100622.63;;;9.18;73.98
56070;BME280;41944;52.078;-0.058;2023-04-24T05:58:58;100622.68;;;9.05;74.71
56070;BME280;41944;52.078;-0.058;2023-04-24T06:01:25;100624.95;;;9.19;74.62
56070;BME280;41944;52.078;-0.058;2023-04-24T06:03:52;100628.06;;;9.01;74.45
56070;BME280;41944;52.078;-0.058;2023-04-24T06:06:19;100624.62;;;9.05;74.42
56070;BME280;41944;52.078;-0.058;2023-04-24T06:08:46;100627.67;;;9.12;73.32
56070;BME280;41944;52.078;-0.058;2023-04-24T06:11:13;100629.30;;;9.21;74.69
56070;BME280;41944;52.078;-0.058;2023-04-24T06:13:40;100634.41;;;9.23;73.98
56070;BME280;41944;52.078;-0.058;2023-04-24T06:16:07;100637.28;;;9.35;73.00
56070;BME280;41944;52.078;-0.058;2023-04-24T06:18:34;100636.25;;;9.28;72.41
56070;BME280;41944;52.078;-0.058;2023-04-24T06:21:01;100630.07;;;9.25;72.60
56070;BME280;41944;52.078;-0.058;2023-04-24T06:23:28;100630.65;;;9.10;73.44
56070;BME280;41944;52.078;-0.058;2023-04-24T06:25:55;100628.16;;;9.24;73.24
56070;BME280;41944;52.078;-0.058;2023-04-24T06:28:22;100631.22;;;9.24;72.35
56070;BME280;41944;52.078;-0.058;2023-04-24T06:30:49;100634.02;;;9.28;73.65
56070;BME280;41944;52.078;-0.058;2023-04-24T06:33:16;100635.35;;;9.59;73.92
56070;BME280;41944;52.078;-0.058;2023-04-24T06:35:43;100636.72;;;9.51;71.52
56070;BME280;41944;52.078;-0.058;2023-04-24T06:38:10;100631.43;;;9.72;72.01
56070;BME280;41944;52.078;-0.058;2023-04-24T06:40:37;100641.55;;;9.90;70.54
56070;BME280;41944;52.078;-0.058;2023-04-24T06:43:04;100638.67;;;10.08;69.73
56070;BME280;41944;52.078;-0.058;2023-04-24T06:45:31;100640.48;;;10.01;68.62
56070;BME280;41944;52.078;-0.058;2023-04-24T06:47:58;100640.45;;;10.05;68.27
56070;BME280;41944;52.078;-0.058;2023-04-24T06:50:25;100638.30;;;10.17;67.17
56070;BME280;41944;52.078;-0.058;2023-04-24T06:52:52;100637.67;;;10.23;67.44
56070;BME280;41944;52.078;-0.058;2023-04-24T06:55:18;100635.05;;;10.18;66.60
56070;BME280;41944;52.078;-0.058;2023-04-24T06:57:45;100640.25;;;10.11;67.21
56070;BME280;41944;52.078;-0.058;2023-04-24T07:00:13;100634.51;;;9.86;66.99
56070;BME280;41944;52.078;-0.058;2023-04-24T07:02:40;100636.75;;;9.83;68.49
56070;BME280;41944;52.078;-0.058;2023-04-24T07:05:07;100643.69;;;9.92;68.87
56070;BME280;41944;52.078;-0.058;2023-04-24T07:07:34;100649.44;;;10.26;67.96
56070;BME280;41944;52.078;-0.058;2023-04-24T07:10:01;100651.92;;;10.33;67.46
56070;BME280;41944;52.078;-0.058;2023-04-24T07:12:28;100652.15;;;10.54;65.42
56070;BME280;41944;52.078;-0.058;2023-04-24T07:14:54;100650.45;;;10.59;64.74
56070;BME280;41944;52.078;-0.058;2023-04-24T07:17:21;100652.59;;;10.52;64.97
56070;BME280;41944;52.078;-0.058;2023-04-24T07:19:48;100658.46;;;10.49;66.65
56070;BME280;41944;52.078;-0.058;2023-04-24T07:22:15;100660.43;;;10.35;65.95
56070;BME280;41944;52.078;-0.058;2023-04-24T07:24:42;100667.79;;;10.31;65.65
56070;BME280;41944;52.078;-0.058;2023-04-24T07:27:09;100672.14;;;10.38;66.12
56070;BME280;41944;52.078;-0.058;2023-04-24T07:29:36;100674.14;;;10.40;65.19
56070;BME280;41944;52.078;-0.058;2023-04-24T07:32:03;100670.96;;;10.39;65.39
56070;BME280;41944;52.078;-0.058;2023-04-24T07:34:30;100669.02;;;10.49;65.87
56070;BME280;41944;52.078;-0.058;2023-04-24T07:36:57;100662.25;;;10.57;64.25
56070;BME280;41944;52.078;-0.058;2023-04-24T07:39:24;100667.22;;;10.71;66.01
56070;BME280;41944;52.078;-0.058;2023-04-24T07:41:50;100664.98;;;10.80;63.97
56070;BME280;41944;52.078;-0.058;2023-04-24T07:44:17;100666.25;;;10.91;64.94
56070;BME280;41944;52.078;-0.058;2023-04-24T07:46:44;100663.84;;;11.00;63.61
56070;BME280;41944;52.078;-0.058;2023-04-24T07:49:11;100656.52;;;11.25;61.35
56070;BME280;41944;52.078;-0.058;2023-04-24T07:51:38;100662.86;;;11.10;59.70
56070;BME280;41944;52.078;-0.058;2023-04-24T07:54:05;100666.10;;;11.01;61.13
56070;BME280;41944;52.078;-0.058;2023-04-24T07:56:32;100666.55;;;11.02;60.32
56070;BME280;41944;52.078;-0.058;2023-04-24T07:59:00;100654.22;;;11.22;61.24
56070;BME280;41944;52.078;-0.058;2023-04-24T08:01:26;100660.19;;;11.48;58.30
56070;BME280;41944;52.078;-0.058;2023-04-24T08:03:53;100659.07;;;11.56;57.34
56070;BME280;41944;52.078;-0.058;2023-04-24T08:06:20;100664.90;;;11.73;58.09
56070;BME280;41944;52.078;-0.058;2023-04-24T08:08:47;100666.11;;;11.95;58.88
56070;BME280;41944;52.078;-0.058;2023-04-24T08:11:14;100672.37;;;12.22;57.36
56070;BME280;41944;52.078;-0.058;2023-04-24T08:13:41;100671.99;;;12.32;57.27
56070;BME280;41944;52.078;-0.058;2023-04-24T08:16:08;100671.32;;;12.49;58.34
56070;BME280;41944;52.078;-0.058;2023-04-24T08:18:35;100672.69;;;12.67;56.83
56070;BME280;41944;52.078;-0.058;2023-04-24T08:21:02;100670.64;;;12.60;55.25
56070;BME280;41944;52.078;-0.058;2023-04-24T08:23:29;100669.69;;;12.65;53.35
56070;BME280;41944;52.078;-0.058;2023-04-24T08:25:55;100669.94;;;12.71;52.19
56070;BME280;41944;52.078;-0.058;2023-04-24T08:28:22;100673.33;;;12.60;57.03
56070;BME280;41944;52.078;-0.058;2023-04-24T08:30:49;100673.49;;;12.29;55.43
56070;BME280;41944;52.078;-0.058;2023-04-24T08:33:16;100676.61;;;12.58;54.61
56070;BME280;41944;52.078;-0.058;2023-04-24T08:35:43;100679.64;;;12.72;56.44
56070;BME280;41944;52.078;-0.058;2023-04-24T08:38:10;100678.83;;;12.59;53.66
56070;BME280;41944;52.078;-0.058;2023-04-24T08:40:38;100681.95;;;12.70;54.51
56070;BME280;41944;52.078;-0.058;2023-04-24T08:43:05;100683.83;;;12.68;54.17
56070;BME280;41944;52.078;-0.058;2023-04-24T08:45:33;100685.57;;;12.26;54.68
56070;BME280;41944;52.078;-0.058;2023-04-24T08:48:00;100691.47;;;12.36;55.42
56070;BME280;41944;52.078;-0.058;2023-04-24T08:50:27;100688.77;;;12.10;56.07
56070;BME280;41944;52.078;-0.058;2023-04-24T08:52:55;100682.46;;;12.06;56.79
56070;BME280;41944;52.078;-0.058;2023-04-24T08:55:24;100688.63;;;12.50;56.67
56070;BME280;41944;52.078;-0.058;2023-04-24T08:57:52;100691.67;;;12.62;54.68
56070;BME280;41944;52.078;-0.058;2023-04-24T09:00:20;100692.34;;;12.36;55.17
56070;BME280;41944;52.078;-0.058;2023-04-24T09:02:49;100693.48;;;12.48;54.99
56070;BME280;41944;52.078;-0.058;2023-04-24T09:05:17;100697.13;;;12.56;56.61
56070;BME280;41944;52.078;-0.058;2023-04-24T09:07:46;100697.44;;;12.64;55.74
56070;BME280;41944;52.078;-0.058;2023-04-24T09:10:16;100694.48;;;12.32;54.68
56070;BME280;41944;52.078;-0.058;2023-04-24T09:12:44;100693.91;;;12.43;55.48
56070;BME280;41944;52.078;-0.058;2023-04-24T09:15:11;100694.57;;;12.81;55.19
56070;BME280;41944;52.078;-0.058;2023-04-24T09:17:39;100699.44;;;12.91;54.32
56070;BME280;41944;52.078;-0.058;2023-04-24T09:20:08;100699.36;;;13.11;54.00
56070;BME280;41944;52.078;-0.058;2023-04-24T09:22:35;100694.58;;;12.81;55.79
56070;BME280;41944;52.078;-0.058;2023-04-24T09:25:03;100700.68;;;12.92;56.04
56070;BME280;41944;52.078;-0.058;2023-04-24T09:27:31;100703.54;;;13.12;54.57
56070;BME280;41944;52.078;-0.058;2023-04-24T09:29:59;100704.90;;;12.98;55.21
56070;BME280;41944;52.078;-0.058;2023-04-24T09:32:27;100704.47;;;13.35;54.54
56070;BME280;41944;52.078;-0.058;2023-04-24T09:35:12;100701.76;;;13.29;54.25
56070;BME280;41944;52.078;-0.058;2023-04-24T09:37:41;100705.62;;;13.41;54.59
56070;BME280;41944;52.078;-0.058;2023-04-24T09:40:12;100707.56;;;13.51;54.84
56070;BME280;41944;52.078;-0.058;2023-04-24T09:42:40;100715.39;;;13.45;51.63
56070;BME280;41944;52.078;-0.058;2023-04-24T09:45:09;100716.02;;;13.22;53.39
56070;BME280;41944;52.078;-0.058;2023-04-24T09:47:37;100719.72;;;13.31;53.98
56070;BME280;41944;52.078;-0.058;2023-04-24T09:50:14;100731.95;;;13.60;53.03
56070;BME280;41944;52.078;-0.058;2023-04-24T09:52:43;100730.87;;;13.43;53.43
56070;BME280;41944;52.078;-0.058;2023-04-24T09:55:15;100734.03;;;13.09;55.90
56070;BME280;41944;52.078;-0.058;2023-04-24T09:57:51;100736.58;;;13.11;55.40
56070;BME280;41944;52.078;-0.058;2023-04-24T10:00:20;100738.81;;;13.15;54.81
56070;BME280;41944;52.078;-0.058;2023-04-24T10:02:50;100736.93;;;13.26;53.83
56070;BME280;41944;52.078;-0.058;2023-04-24T10:05:17;100735.61;;;13.38;55.46
56070;BME280;41944;52.078;-0.058;2023-04-24T10:07:44;100742.86;;;13.36;53.84
56070;BME280;41944;52.078;-0.058;2023-04-24T10:10:12;100749.50;;;13.58;53.75
56070;BME280;41944;52.078;-0.058;2023-04-24T10:12:39;100749.08;;;13.81;53.06
56070;BME280;41944;52.078;-0.058;2023-04-24T10:15:08;100750.81;;;13.99;54.02
56070;BME280;41944;52.078;-0.058;2023-04-24T10:17:38;100756.59;;;13.98;52.47
56070;BME280;41944;52.078;-0.058;2023-04-24T10:20:06;100756.87;;;14.06;50.60
56070;BME280;41944;52.078;-0.058;2023-04-24T10:22:35;100760.58;;;13.95;51.03
56070;BME280;41944;52.078;-0.058;2023-04-24T10:25:04;100759.84;;;14.07;52.12
56070;BME280;41944;52.078;-0.058;2023-04-24T10:27:32;100759.22;;;14.11;52.54
56070;BME280;41944;52.078;-0.058;2023-04-24T10:30:01;100764.07;;;14.25;52.11
56070;BME280;41944;52.078;-0.058;2023-04-24T10:32:29;100767.63;;;14.30;51.83
56070;BME280;41944;52.078;-0.058;2023-04-24T10:34:55;100768.87;;;14.14;51.83
56070;BME280;41944;52.078;-0.058;2023-04-24T10:37:23;100770.08;;;14.18;53.06
56070;BME280;41944;52.078;-0.058;2023-04-24T10:39:52;100769.53;;;14.17;52.80
56070;BME280;41944;52.078;-0.058;2023-04-24T10:42:18;100766.99;;;14.27;51.50
56070;BME280;41944;52.078;-0.058;2023-04-24T10:44:47;100762.79;;;14.30;50.28
56070;BME280;41944;52.078;-0.058;2023-04-24T10:47:15;100763.59;;;14.38;50.73
56070;BME280;41944;52.078;-0.058;2023-04-24T10:49:42;100758.83;;;14.45;50.03
56070;BME280;41944;52.078;-0.058;2023-04-24T10:52:09;100764.49;;;14.39;49.59
56070;BME280;41944;52.078;-0.058;2023-04-24T10:54:42;100767.28;;;13.79;50.71
56070;BME280;41944;52.078;-0.058;2023-04-24T10:58:01;100760.87;;;13.93;51.20
56070;BME280;41944;52.078;-0.058;2023-04-24T11:00:29;100761.47;;;14.18;50.71
56070;BME280;41944;52.078;-0.058;2023-04-24T11:02:56;100758.94;;;14.22;49.63
56070;BME280;41944;52.078;-0.058;2023-04-24T11:05:49;100755.50;;;14.69;49.84
56070;BME280;41944;52.078;-0.058;2023-04-24T11:08:23;100758.21;;;15.06;48.10
56070;BME280;41944;52.078;-0.058;2023-04-24T11:10:57;100756.66;;;14.83;48.71
56070;BME280;41944;52.078;-0.058;2023-04-24T11:13:26;100760.51;;;15.03;47.71
56070;BME280;41944;52.078;-0.058;2023-04-24T11:16:28;100762.20;;;14.88;48.24
56070;BME280;41944;52.078;-0.058;2023-04-24T11:19:01;100764.24;;;15.35;47.96
56070;BME280;41944;52.078;-0.058;2023-04-24T11:21:32;100768.52;;;15.58;48.15
56070;BME280;41944;52.078;-0.058;2023-04-24T11:24:23;100770.64;;;15.58;46.88
56070;BME280;41944;52.078;-0.058;2023-04-24T11:26:51;100768.80;;;15.51;46.94
56070;BME280;41944;52.078;-0.058;2023-04-24T11:29:20;100769.65;;;15.70;48.43
56070;BME280;41944;52.078;-0.058;2023-04-24T11:31:47;100770.76;;;15.97;48.33
56070;BME280;41944;52.078;-0.058;2023-04-24T11:34:14;100772.29;;;15.88;46.23
56070;BME280;41944;52.078;-0.058;2023-04-24T11:36:43;100773.67;;;15.82;45.27
56070;BME280;41944;52.078;-0.058;2023-04-24T11:39:11;100776.81;;;15.54;45.20
56070;BME280;41944;52.078;-0.058;2023-04-24T11:41:38;100783.32;;;15.31;45.43
56070;BME280;41944;52.078;-0.058;2023-04-24T11:44:08;100780.37;;;15.33;45.16
56070;BME280;41944;52.078;-0.058;2023-04-24T11:46:35;100783.32;;;15.44;48.41
56070;BME280;41944;52.078;-0.058;2023-04-24T11:49:02;100781.09;;;15.20;46.55
56070;BME280;41944;52.078;-0.058;2023-04-24T11:51:29;100785.10;;;15.05;46.24
56070;BME280;41944;52.078;-0.058;2023-04-24T11:53:56;100779.35;;;14.81;46.59
56070;BME280;41944;52.078;-0.058;2023-04-24T11:56:24;100784.32;;;14.85;47.21
56070;BME280;41944;52.078;-0.058;2023-04-24T11:58:52;100782.70;;;14.80;48.99
56070;BME280;41944;52.078;-0.058;2023-04-24T12:01:19;100784.41;;;15.02;47.55
56070;BME280;41944;52.078;-0.058;2023-04-24T12:03:48;100782.63;;;15.00;46.44
56070;BME280;41944;52.078;-0.058;2023-04-24T12:06:14;100781.75;;;14.98;46.19
56070;BME280;41944;52.078;-0.058;2023-04-24T12:08:41;100782.28;;;14.95;46.56
56070;BME280;41944;52.078;-0.058;2023-04-24T12:11:08;100780.65;;;14.79;47.34
56070;BME280;41944;52.078;-0.058;2023-04-24T12:13:35;100784.59;;;14.63;47.37
56070;BME280;41944;52.078;-0.058;2023-04-24T12:16:04;100786.26;;;14.37;48.75
56070;BME280;41944;52.078;-0.058;2023-04-24T12:18:31;100790.55;;;14.55;48.14
56070;BME280;41944;52.078;-0.058;2023-04-24T12:21:15;100793.72;;;14.63;48.46
56070;BME280;41944;52.078;-0.058;2023-04-24T12:23:43;100797.24;;;14.71;47.52
56070;BME280;41944;52.078;-0.058;2023-04-24T12:26:09;100793.97;;;14.84;48.91
56070;BME280;41944;52.078;-0.058;2023-04-24T12:28:38;100796.43;;;15.18;48.69
56070;BME280;41944;52.078;-0.058;2023-04-24T12:31:06;100795.45;;;14.93;46.88
56070;BME280;41944;52.078;-0.058;2023-04-24T12:33:35;100789.43;;;14.88;46.72
56070;BME280;41944;52.078;-0.058;2023-04-24T12:36:03;100792.69;;;15.15;47.50
56070;BME280;41944;52.078;-0.058;2023-04-24T12:38:30;100792.52;;;15.44;47.26
56070;BME280;41944;52.078;-0.058;2023-04-24T12:41:03;100791.59;;;15.65;45.63
56070;BME280;41944;52.078;-0.058;2023-04-24T12:43:30;100797.74;;;16.05;45.39
56070;BME280;41944;52.078;-0.058;2023-04-24T12:45:58;100800.08;;;16.01;45.34
56070;BME280;41944;52.078;-0.058;2023-04-24T12:48:24;100797.23;;;16.03;44.77